createdAt,value
2022-08-22T00:00:42.891Z,15.26
2022-08-22T00:02:52.479Z,15.17
2022-08-22T00:06:15.483Z,15.26
2022-08-22T00:11:40.438Z,15.22
2022-08-22T00:17:54.936Z,15.21
2022-08-22T00:24:29.222Z,15.21
2022-08-22T00:30:10.743Z,15.21
2022-08-22T00:36:16.572Z,15.23
2022-08-22T00:42:47.090Z,15.24
2022-08-22T00:49:31.170Z,15.25
2022-08-22T00:55:53.603Z,15.25
2022-08-22T01:02:34.533Z,15.26
2022-08-22T01:09:06.499Z,15.24
2022-08-22T01:15:10.770Z,15.23
2022-08-22T01:21:24.631Z,15.23
2022-08-22T01:27:35.964Z,15.23
2022-08-22T01:34:13.080Z,15.22
2022-08-22T01:40:53.567Z,15.22
2022-08-22T01:46:48.732Z,15.21
2022-08-22T01:52:12.658Z,15.19
2022-08-22T01:57:16.368Z,15.20
2022-08-22T02:03:25.819Z,15.20
2022-08-22T02:09:47.418Z,15.20
2022-08-22T02:15:48.143Z,15.22
2022-08-22T02:22:19.143Z,15.25
2022-08-22T02:29:07.207Z,15.27
2022-08-22T02:35:43.186Z,15.27
2022-08-22T02:41:39.810Z,15.28
2022-08-22T02:47:16.829Z,15.29
2022-08-22T02:52:46.602Z,15.32
2022-08-22T02:58:09.561Z,15.33
2022-08-22T03:03:45.451Z,15.34
2022-08-22T03:09:33.466Z,15.35
2022-08-22T03:15:30.837Z,15.37
2022-08-22T03:21:31.299Z,15.37
2022-08-22T03:28:10.217Z,15.40
2022-08-22T03:34:13.390Z,15.42
2022-08-22T03:40:11.009Z,15.43
2022-08-22T03:46:28.108Z,15.44
2022-08-22T03:52:21.689Z,15.46
2022-08-22T03:59:11.366Z,15.46
2022-08-22T04:05:36.803Z,15.46
2022-08-22T04:12:28.522Z,15.47
2022-08-22T04:19:23.170Z,15.46
2022-08-22T04:25:47.585Z,15.46
2022-08-22T04:32:23.922Z,15.48
2022-08-22T04:38:50.009Z,15.49
2022-08-22T04:44:44.999Z,15.48
2022-08-22T04:50:38.006Z,15.49
2022-08-22T04:56:56.206Z,15.51
2022-08-22T05:02:29.856Z,15.52
2022-08-22T05:08:16.227Z,15.52
2022-08-22T05:13:53.882Z,15.53
2022-08-22T05:19:40.960Z,15.55
2022-08-22T05:25:12.311Z,15.57
2022-08-22T05:30:39.666Z,15.61
2022-08-22T05:35:57.873Z,15.62
2022-08-22T05:41:34.564Z,15.62
2022-08-22T05:47:21.607Z,15.62
2022-08-22T05:54:21.826Z,15.61
2022-08-22T06:00:36.971Z,15.61
2022-08-22T06:06:02.339Z,15.62
2022-08-22T06:12:21.608Z,15.61
2022-08-22T06:18:28.922Z,15.63
2022-08-22T06:24:44.610Z,15.64
2022-08-22T06:30:55.703Z,15.64
2022-08-22T06:37:11.676Z,15.64
2022-08-22T06:44:09.468Z,15.66
2022-08-22T06:49:46.658Z,15.67
2022-08-22T06:55:46.186Z,15.69
2022-08-22T07:02:10.693Z,15.69
2022-08-22T07:07:32.134Z,15.72
2022-08-22T07:13:19.045Z,15.80
2022-08-22T07:19:41.690Z,15.82
2022-08-22T07:26:08.968Z,15.83
2022-08-22T07:32:20.491Z,15.86
2022-08-22T07:38:35.461Z,15.92
2022-08-22T07:44:35.504Z,15.95
2022-08-22T07:50:27.765Z,16.06
2022-08-22T07:56:49.125Z,16.16
2022-08-22T08:02:24.295Z,16.19
2022-08-22T08:08:02.782Z,16.18
2022-08-22T08:13:40.110Z,16.10
2022-08-22T08:19:13.311Z,16.12
2022-08-22T08:25:13.656Z,16.12
2022-08-22T08:31:05.723Z,16.17
2022-08-22T08:37:29.540Z,16.22
2022-08-22T08:43:31.492Z,16.25
2022-08-22T08:49:21.050Z,16.21
2022-08-22T08:55:28.613Z,16.25
2022-08-22T09:01:45.176Z,16.32
2022-08-22T09:07:48.061Z,16.36
2022-08-22T09:13:53.663Z,16.37
2022-08-22T09:20:20.165Z,16.34
2022-08-22T09:26:08.907Z,16.25
2022-08-22T09:31:47.376Z,16.26
2022-08-22T09:37:17.147Z,16.27
2022-08-22T09:43:25.838Z,16.28
2022-08-22T09:49:19.382Z,16.31
2022-08-22T09:55:18.833Z,16.32
2022-08-22T10:02:43.570Z,16.36
2022-08-22T10:08:38.859Z,16.44
2022-08-22T10:14:50.487Z,16.54
2022-08-22T10:20:39.155Z,16.69
2022-08-22T10:26:38.746Z,16.80
2022-08-22T10:32:36.572Z,16.88
2022-08-22T10:38:05.890Z,16.97
2022-08-22T10:44:16.692Z,16.98
2022-08-22T10:49:45.080Z,16.98
2022-08-22T10:55:17.446Z,16.93
2022-08-22T11:01:38.236Z,16.92
2022-08-22T11:07:23.676Z,16.91
2022-08-22T11:12:44.597Z,16.92
2022-08-22T11:18:25.985Z,16.92
2022-08-22T11:24:34.677Z,16.97
2022-08-22T11:30:45.365Z,16.97
2022-08-22T11:37:11.573Z,17.04
2022-08-22T11:42:54.117Z,17.06
2022-08-22T11:49:02.470Z,17.12
2022-08-22T11:54:59.461Z,17.14
2022-08-22T12:01:05.851Z,17.21
2022-08-22T12:07:27.505Z,17.29
2022-08-22T12:13:49.726Z,17.41
2022-08-22T12:20:22.085Z,17.56
2022-08-22T12:27:07.837Z,17.64
2022-08-22T12:33:22.026Z,17.68
2022-08-22T12:39:27.848Z,17.79
2022-08-22T12:46:13.204Z,18.12
2022-08-22T12:52:32.337Z,18.47
2022-08-22T12:57:54.099Z,18.66
2022-08-22T13:03:23.577Z,18.79
2022-08-22T13:08:52.299Z,18.81
2022-08-22T13:14:30.704Z,18.80
2022-08-22T13:19:57.392Z,18.82
2022-08-22T13:25:49.556Z,18.81
2022-08-22T13:30:56.518Z,18.87
2022-08-22T13:36:21.889Z,18.82
2022-08-22T13:42:00.826Z,18.78
2022-08-22T13:47:27.654Z,18.70
2022-08-22T13:52:52.474Z,18.58
2022-08-22T13:59:01.205Z,18.55
2022-08-22T14:04:53.491Z,18.50
2022-08-22T14:10:19.255Z,18.46
2022-08-22T14:15:45.234Z,18.40
2022-08-22T14:21:11.366Z,18.31
2022-08-22T14:27:05.135Z,18.23
2022-08-22T14:32:46.436Z,18.18
2022-08-22T14:38:32.462Z,18.12
2022-08-22T14:44:28.265Z,18.06
2022-08-22T14:49:52.991Z,18.05
2022-08-22T14:55:27.177Z,18.13
2022-08-22T15:00:44.888Z,18.17
2022-08-22T15:06:48.589Z,18.15
2022-08-22T15:12:41.109Z,18.17
2022-08-22T15:17:55.108Z,18.18
2022-08-22T15:23:24.473Z,18.08
2022-08-22T15:28:53.342Z,18.03
2022-08-22T15:34:31.230Z,17.97
2022-08-22T15:40:25.263Z,17.91
2022-08-22T15:45:50.409Z,17.88
2022-08-22T15:51:52.513Z,17.82
2022-08-22T15:57:46.471Z,17.74
2022-08-22T16:03:33.904Z,17.70
2022-08-22T16:08:52.060Z,17.67
2022-08-22T16:15:06.899Z,17.66
2022-08-22T16:20:19.905Z,17.68
2022-08-22T16:25:52.866Z,17.69
2022-08-22T16:31:49.170Z,17.67
2022-08-22T16:37:53.109Z,17.64
2022-08-22T16:43:23.720Z,17.62
2022-08-22T16:49:00.487Z,17.60
2022-08-22T16:54:55.815Z,17.60
2022-08-22T17:00:50.424Z,17.57
2022-08-22T17:06:38.562Z,17.57
2022-08-22T17:12:26.026Z,17.56
2022-08-22T17:17:31.322Z,17.57
2022-08-22T17:22:44.797Z,17.57
2022-08-22T17:28:49.225Z,17.59
2022-08-22T17:34:59.629Z,17.60
2022-08-22T17:40:11.782Z,17.63
2022-08-22T17:45:56.256Z,17.66
2022-08-22T17:51:28.326Z,17.69
2022-08-22T17:57:05.936Z,17.72
2022-08-22T18:02:40.460Z,17.75
2022-08-22T18:14:45.409Z,17.82
2022-08-22T18:20:16.321Z,17.88
2022-08-22T18:25:42.127Z,17.92
2022-08-22T18:31:09.198Z,17.95
2022-08-22T18:36:51.563Z,17.99
2022-08-22T18:42:56.912Z,18.01
2022-08-22T18:48:19.199Z,18.03
2022-08-22T18:54:14.367Z,18.04
2022-08-22T19:00:26.800Z,18.04
2022-08-22T19:06:36.532Z,18.06
2022-08-22T19:12:51.465Z,18.09
2022-08-22T19:18:56.473Z,18.10
2022-08-22T19:24:39.456Z,18.12
2022-08-22T19:30:00.967Z,18.16
2022-08-22T19:36:18.452Z,18.17
2022-08-22T19:42:50.574Z,18.19
2022-08-22T19:48:29.113Z,18.21
2022-08-22T19:53:42.040Z,18.22
2022-08-22T19:59:38.959Z,18.24
2022-08-22T20:06:13.791Z,18.26
2022-08-22T20:12:02.813Z,18.28
2022-08-22T20:17:33.023Z,18.31
2022-08-22T20:23:29.818Z,18.33
2022-08-22T20:29:23.597Z,18.37
2022-08-22T20:35:38.957Z,18.40
2022-08-22T20:41:15.219Z,18.42
2022-08-22T20:46:53.774Z,18.45
2022-08-22T20:52:02.857Z,18.47
2022-08-22T20:57:16.733Z,18.48
2022-08-22T21:02:31.654Z,18.50
2022-08-22T21:07:44.601Z,18.51
2022-08-22T21:13:11.869Z,18.55
2022-08-22T21:18:39.797Z,18.57
2022-08-22T21:23:45.049Z,18.59
2022-08-22T21:29:03.680Z,18.63
2022-08-22T21:34:11.962Z,18.67
2022-08-22T21:39:54.615Z,18.68
2022-08-22T21:46:19.955Z,18.57
2022-08-22T21:51:41.910Z,18.29
2022-08-22T21:57:34.626Z,18.08
2022-08-22T22:03:07.383Z,17.93
2022-08-22T22:08:18.747Z,17.68
2022-08-22T22:14:00.607Z,17.55
2022-08-22T22:19:52.109Z,17.51
2022-08-22T22:25:40.075Z,17.39
2022-08-22T22:30:55.246Z,17.32
2022-08-22T22:36:37.953Z,17.26
2022-08-22T22:41:45.980Z,17.20
2022-08-22T22:47:06.620Z,17.15
2022-08-22T22:52:40.746Z,17.09
2022-08-22T22:58:40.664Z,17.04
2022-08-22T23:03:46.196Z,16.98
2022-08-22T23:09:38.013Z,16.92
2022-08-22T23:15:16.798Z,16.89
2022-08-22T23:20:40.172Z,16.85
2022-08-22T23:26:37.624Z,16.82
2022-08-22T23:32:16.347Z,16.82
2022-08-22T23:37:22.390Z,16.81
2022-08-22T23:42:50.506Z,16.81
2022-08-22T23:48:38.252Z,16.80
2022-08-22T23:54:16.399Z,16.81
